Coal City, Alabama
Current Conditions -  °F | °C
As of 5:55 AM on Friday 28 Nov 2014 (Local Time) from KASN Reporting Station
Clear Clear  
Wind Chill: 27°   Ceiling: Unl
Heat Index: 27°   Visibility: 10mi
Dew Point: 23°   Wind: 0mph
Humidity: 87%   Direction: NA
Pressure: 30.43"   Gusts: NA
Location:  33.6608°N, 86.2636°W
Report Text: KASN 281155Z AUTO 00000KT 10SM CLR M03/M05 A3043 RMK AO2 T10291048 10008 21029
Loading
Personal Weather Stations






























Interactive Weather Map New forecast layout! Learn more

10-Day Weather Forecast

Advertisements
Track Severe Weather on mobile